createdAt,value
2019-04-23T00:04:28.745Z,11.78
2019-04-23T00:09:46.956Z,11.76
2019-04-23T00:15:04.480Z,11.75
2019-04-23T00:20:14.749Z,11.76
2019-04-23T00:36:12.326Z,11.48
2019-04-23T00:41:20.342Z,11.50
2019-04-23T00:46:48.967Z,11.37
2019-04-23T00:52:07.850Z,11.27
2019-04-23T00:57:25.380Z,11.50
2019-04-23T01:02:31.134Z,11.22
2019-04-23T01:07:50.026Z,11.39
2019-04-23T01:13:03.457Z,11.47
2019-04-23T01:18:22.203Z,11.39
2019-04-23T01:23:05.646Z,11.56
2019-04-23T01:28:42.070Z,11.32
2019-04-23T01:33:55.514Z,11.26
2019-04-23T01:44:21.777Z,11.00
2019-04-23T01:49:37.336Z,10.96
2019-04-23T01:54:50.014Z,11.08
2019-04-23T02:00:03.675Z,10.97
2019-04-23T02:05:17.244Z,10.88
2019-04-23T02:10:41.142Z,11.05
2019-04-23T02:21:13.518Z,10.81
2019-04-23T02:26:46.750Z,10.83
2019-04-23T02:31:57.448Z,10.76
2019-04-23T02:42:49.682Z,10.45
2019-04-23T02:47:42.548Z,10.24
2019-04-23T02:52:47.296Z,10.39
2019-04-23T02:58:00.771Z,10.43
2019-04-23T03:03:23.084Z,10.33
2019-04-23T03:08:26.727Z,10.16
2019-04-23T03:24:13.438Z,10.03
2019-04-23T03:50:29.946Z,9.97
2019-04-23T03:55:45.438Z,9.93
2019-04-23T04:06:38.874Z,9.92
2019-04-23T04:11:27.302Z,9.86
2019-04-23T04:17:03.612Z,9.87
2019-04-23T04:22:21.532Z,10.05
2019-04-23T04:27:36.505Z,9.92
2019-04-23T04:32:36.524Z,9.96
2019-04-23T04:43:07.782Z,10.02
2019-04-23T04:48:18.131Z,10.02
2019-04-23T05:03:36.275Z,10.23
2019-04-23T05:09:06.790Z,10.41
2019-04-23T05:14:12.785Z,14.95
2019-04-23T05:24:35.325Z,19.46
2019-04-23T05:35:04.731Z,20.57
2019-04-23T05:40:30.197Z,20.30
2019-04-23T05:45:29.775Z,22.16
2019-04-23T05:51:04.582Z,20.70
2019-04-23T05:56:14.813Z,20.03
2019-04-23T06:11:57.198Z,21.60
2019-04-23T06:21:57.757Z,20.41
2019-04-23T06:27:05.260Z,15.29
2019-04-23T06:32:02.749Z,13.68
2019-04-23T06:37:09.327Z,13.73
2019-04-23T06:42:14.570Z,13.33
2019-04-23T06:57:26.983Z,13.47
2019-04-23T07:02:39.139Z,13.36
2019-04-23T07:07:55.234Z,13.41
2019-04-23T07:12:50.523Z,13.29
2019-04-23T07:17:55.339Z,13.47
2019-04-23T07:23:05.206Z,13.40
2019-04-23T07:28:13.208Z,13.48
2019-04-23T07:33:11.842Z,13.60
2019-04-23T07:38:20.373Z,13.71
2019-04-23T07:43:34.354Z,13.87
2019-04-23T07:48:24.205Z,14.38
2019-04-23T07:53:39.877Z,14.47
2019-04-23T07:58:39.294Z,14.14
2019-04-23T08:03:48.167Z,14.54
2019-04-23T08:08:57.541Z,14.55
2019-04-23T08:19:24.433Z,14.80
2019-04-23T08:24:10.409Z,15.00
2019-04-23T08:34:30.975Z,15.45
2019-04-23T08:54:58.080Z,16.32
2019-04-23T08:59:56.015Z,16.65
2019-04-23T09:05:09.121Z,16.73
2019-04-23T09:15:15.349Z,21.29
2019-04-23T09:25:29.990Z,21.48
2019-04-23T09:30:32.189Z,21.13
2019-04-23T09:40:56.066Z,21.02
2019-04-23T09:45:48.583Z,21.05
2019-04-23T09:50:54.090Z,20.84
2019-04-23T09:55:51.413Z,21.61
2019-04-23T10:01:24.995Z,21.84
2019-04-23T10:06:07.740Z,21.75
2019-04-23T10:11:05.332Z,21.55
2019-04-23T10:16:12.264Z,21.97
2019-04-23T10:26:19.828Z,22.29
2019-04-23T10:31:25.274Z,21.31
2019-04-23T10:36:49.356Z,21.83
2019-04-23T10:41:55.387Z,20.75
2019-04-23T10:47:27.122Z,21.17
2019-04-23T10:52:30.592Z,21.47
2019-04-23T10:57:31.601Z,21.45
2019-04-23T11:02:48.787Z,20.69
2019-04-23T11:07:42.077Z,22.14
2019-04-23T11:17:59.036Z,20.41
2019-04-23T11:23:00.024Z,21.15
2019-04-23T11:28:21.187Z,21.91
2019-04-23T11:33:20.246Z,21.44
2019-04-23T11:38:49.013Z,21.53
2019-04-23T11:43:33.034Z,21.15
2019-04-23T11:53:52.497Z,20.51
2019-04-23T11:58:52.688Z,20.93
2019-04-23T12:04:07.350Z,21.34
2019-04-23T12:08:56.646Z,21.70
2019-04-23T12:14:24.065Z,21.15
2019-04-23T12:19:46.077Z,20.97
2019-04-23T12:24:54.651Z,21.30
2019-04-23T12:29:33.108Z,22.51
2019-04-23T12:34:35.778Z,22.09
2019-04-23T12:39:41.861Z,21.88
2019-04-23T12:44:45.813Z,22.39
2019-04-23T13:00:10.055Z,21.07
2019-04-23T13:05:11.835Z,21.35
2019-04-23T13:15:34.691Z,21.34
2019-04-23T13:20:27.976Z,21.54
2019-04-23T13:40:57.176Z,20.87
2019-04-23T13:51:18.952Z,21.24
2019-04-23T13:56:13.745Z,20.60
2019-04-23T14:06:29.361Z,20.13
2019-04-23T14:16:48.836Z,19.57
2019-04-23T14:21:51.807Z,19.32
2019-04-23T14:26:38.433Z,19.07
2019-04-23T14:31:53.295Z,18.77
2019-04-23T14:37:13.263Z,18.55
2019-04-23T14:42:14.557Z,18.41
2019-04-23T14:47:16.808Z,18.32
2019-04-23T14:57:24.599Z,17.98
2019-04-23T15:02:27.134Z,17.77
2019-04-23T15:12:38.491Z,17.51
2019-04-23T15:17:44.975Z,17.42
2019-04-23T15:23:05.165Z,17.38
2019-04-23T15:28:06.775Z,17.28
2019-04-23T15:43:14.440Z,17.09
2019-04-23T15:48:26.356Z,16.95
2019-04-23T15:53:17.487Z,16.78
2019-04-23T15:58:46.205Z,16.82
2019-04-23T16:03:13.574Z,16.68
2019-04-23T16:08:51.736Z,16.73
2019-04-23T16:14:10.183Z,16.73
2019-04-23T16:18:59.146Z,16.68
2019-04-23T16:24:10.468Z,16.65
2019-04-23T16:29:27.488Z,16.69
2019-04-23T16:34:21.953Z,16.67
2019-04-23T16:39:24.210Z,16.68
2019-04-23T17:06:55.006Z,16.92
2019-04-23T17:17:30.920Z,16.84
2019-04-23T17:28:12.755Z,16.81
2019-04-23T17:33:37.717Z,16.72
2019-04-23T17:38:56.889Z,16.72
2019-04-23T17:44:11.760Z,16.67
2019-04-23T17:49:15.388Z,16.57
2019-04-23T17:59:53.605Z,16.53
2019-04-23T18:10:13.296Z,16.51
2019-04-23T18:20:13.064Z,16.53
2019-04-23T18:30:19.097Z,16.59
2019-04-23T18:35:24.336Z,16.57
2019-04-23T18:40:40.388Z,16.66
2019-04-23T18:50:52.159Z,16.77
2019-04-23T19:01:05.371Z,16.67
2019-04-23T19:06:23.789Z,16.59
2019-04-23T19:11:34.633Z,16.48
2019-04-23T19:17:00.727Z,16.35
2019-04-23T19:22:14.289Z,16.43
2019-04-23T19:32:35.547Z,16.38
2019-04-23T19:37:55.506Z,16.24
2019-04-23T19:42:55.380Z,16.17
2019-04-23T19:48:16.258Z,16.09
2019-04-23T19:53:32.174Z,16.01
2019-04-23T20:03:56.245Z,15.97
2019-04-23T20:09:23.327Z,15.92
2019-04-23T20:19:07.219Z,15.76
2019-04-23T20:34:46.476Z,15.73
2019-04-23T20:39:38.573Z,15.65
2019-04-23T20:55:05.197Z,15.65
2019-04-23T21:10:38.577Z,15.43
2019-04-23T21:15:45.728Z,15.41
2019-04-23T21:20:50.070Z,15.30
2019-04-23T21:25:52.578Z,15.22
2019-04-23T21:31:11.471Z,15.15
2019-04-23T21:36:15.573Z,15.10
2019-04-23T21:46:20.606Z,14.90
2019-04-23T21:51:41.933Z,14.79
2019-04-23T21:56:37.211Z,14.80
2019-04-23T22:06:47.908Z,14.64
2019-04-23T22:17:09.615Z,14.51
2019-04-23T22:21:59.095Z,14.47
2019-04-23T22:27:05.889Z,14.46
2019-04-23T22:32:15.103Z,14.38
2019-04-23T22:37:35.061Z,14.31
2019-04-23T22:42:41.223Z,14.21
2019-04-23T22:47:33.711Z,14.11
2019-04-23T22:52:41.186Z,14.08
2019-04-23T23:02:58.022Z,13.98
2019-04-23T23:13:04.051Z,13.85
2019-04-23T23:18:19.875Z,13.86
2019-04-23T23:23:21.047Z,13.80
2019-04-23T23:28:22.362Z,13.73
2019-04-23T23:33:23.072Z,13.69
2019-04-23T23:38:33.430Z,13.56
2019-04-23T23:43:41.779Z,13.59
2019-04-23T23:48:40.748Z,13.53
2019-04-23T23:53:58.604Z,13.50
2019-04-23T23:58:56.968Z,13.51
